sensor_id;sensor_type;location;lat;lon;timestamp;temperature;humidity
7002;DHT22;3541;53.230;10.518;2024-03-22T00:00:00;9.00;99.90
7002;DHT22;3541;53.230;10.518;2024-03-22T00:02:26;9.10;99.90
7002;DHT22;3541;53.230;10.518;2024-03-22T00:04:52;9.00;99.90
7002;DHT22;3541;53.230;10.518;2024-03-22T00:07:19;9.00;99.90
7002;DHT22;3541;53.230;10.518;2024-03-22T00:09:44;9.00;99.90
7002;DHT22;3541;53.230;10.518;2024-03-22T00:12:11;9.00;99.90
7002;DHT22;3541;53.230;10.518;2024-03-22T00:14:37;9.00;99.90
7002;DHT22;3541;53.230;10.518;2024-03-22T00:17:05;9.00;99.90
7002;DHT22;3541;53.230;10.518;2024-03-22T00:19:31;9.00;99.90
7002;DHT22;3541;53.230;10.518;2024-03-22T00:21:57;9.00;99.90
7002;DHT22;3541;53.230;10.518;2024-03-22T00:24:23;9.00;99.90
7002;DHT22;3541;53.230;10.518;2024-03-22T00:26:50;8.90;99.90
7002;DHT22;3541;53.230;10.518;2024-03-22T00:29:15;9.00;99.90
7002;DHT22;3541;53.230;10.518;2024-03-22T00:31:42;9.00;99.90
7002;DHT22;3541;53.230;10.518;2024-03-22T00:34:09;9.00;99.90
7002;DHT22;3541;53.230;10.518;2024-03-22T00:36:35;9.00;99.90
7002;DHT22;3541;53.230;10.518;2024-03-22T00:39:02;9.00;99.90
7002;DHT22;3541;53.230;10.518;2024-03-22T00:41:29;9.10;99.90
7002;DHT22;3541;53.230;10.518;2024-03-22T00:43:54;9.10;99.90
7002;DHT22;3541;53.230;10.518;2024-03-22T00:46:21;9.10;99.90
7002;DHT22;3541;53.230;10.518;2024-03-22T00:48:46;9.00;99.90
7002;DHT22;3541;53.230;10.518;2024-03-22T00:51:15;9.10;99.90
7002;DHT22;3541;53.230;10.518;2024-03-22T00:53:40;9.00;99.90
7002;DHT22;3541;53.230;10.518;2024-03-22T00:56:07;9.10;99.90
7002;DHT22;3541;53.230;10.518;2024-03-22T00:58:32;9.00;99.90
7002;DHT22;3541;53.230;10.518;2024-03-22T01:00:59;9.00;99.90
7002;DHT22;3541;53.230;10.518;2024-03-22T01:03:25;9.00;99.90
7002;DHT22;3541;53.230;10.518;2024-03-22T01:05:51;9.10;99.90
7002;DHT22;3541;53.230;10.518;2024-03-22T01:08:18;9.10;99.90
7002;DHT22;3541;53.230;10.518;2024-03-22T01:10:45;9.00;99.90
7002;DHT22;3541;53.230;10.518;2024-03-22T01:13:10;9.00;99.90
7002;DHT22;3541;53.230;10.518;2024-03-22T01:15:37;9.10;99.90
7002;DHT22;3541;53.230;10.518;2024-03-22T01:18:03;9.10;99.90
7002;DHT22;3541;53.230;10.518;2024-03-22T01:20:30;9.10;99.90
7002;DHT22;3541;53.230;10.518;2024-03-22T01:22:55;9.10;99.90
7002;DHT22;3541;53.230;10.518;2024-03-22T01:25:23;9.10;99.90
7002;DHT22;3541;53.230;10.518;2024-03-22T01:27:49;9.10;99.90
7002;DHT22;3541;53.230;10.518;2024-03-22T01:30:15;9.20;99.90
7002;DHT22;3541;53.230;10.518;2024-03-22T01:32:41;9.10;99.90
7002;DHT22;3541;53.230;10.518;2024-03-22T01:35:08;9.10;99.90
7002;DHT22;3541;53.230;10.518;2024-03-22T01:37:34;9.20;99.90
7002;DHT22;3541;53.230;10.518;2024-03-22T01:40:00;9.20;99.90
7002;DHT22;3541;53.230;10.518;2024-03-22T01:42:27;9.20;99.90
7002;DHT22;3541;53.230;10.518;2024-03-22T01:44:54;9.20;99.90
7002;DHT22;3541;53.230;10.518;2024-03-22T01:47:20;9.10;99.90
7002;DHT22;3541;53.230;10.518;2024-03-22T01:49:47;9.10;99.90
7002;DHT22;3541;53.230;10.518;2024-03-22T01:52:13;9.10;99.90
7002;DHT22;3541;53.230;10.518;2024-03-22T01:54:40;9.00;99.90
7002;DHT22;3541;53.230;10.518;2024-03-22T01:57:06;9.10;99.90
7002;DHT22;3541;53.230;10.518;2024-03-22T01:59:34;9.10;99.90
7002;DHT22;3541;53.230;10.518;2024-03-22T02:02:00;9.10;99.90
7002;DHT22;3541;53.230;10.518;2024-03-22T02:04:28;9.10;99.90
7002;DHT22;3541;53.230;10.518;2024-03-22T02:06:53;9.10;99.90
7002;DHT22;3541;53.230;10.518;2024-03-22T02:09:20;9.10;99.90
7002;DHT22;3541;53.230;10.518;2024-03-22T02:11:46;9.10;99.90
7002;DHT22;3541;53.230;10.518;2024-03-22T02:14:13;9.00;99.90
7002;DHT22;3541;53.230;10.518;2024-03-22T02:16:41;9.00;99.90
7002;DHT22;3541;53.230;10.518;2024-03-22T02:19:07;9.00;99.90
7002;DHT22;3541;53.230;10.518;2024-03-22T02:21:33;8.90;99.90
7002;DHT22;3541;53.230;10.518;2024-03-22T02:24:01;8.90;99.90
7002;DHT22;3541;53.230;10.518;2024-03-22T02:26:26;8.90;99.90
7002;DHT22;3541;53.230;10.518;2024-03-22T02:28:53;8.90;99.90
7002;DHT22;3541;53.230;10.518;2024-03-22T02:31:19;8.90;99.90
7002;DHT22;3541;53.230;10.518;2024-03-22T02:33:45;8.90;99.90
7002;DHT22;3541;53.230;10.518;2024-03-22T02:36:11;8.90;99.90
7002;DHT22;3541;53.230;10.518;2024-03-22T02:38:37;8.90;99.90
7002;DHT22;3541;53.230;10.518;2024-03-22T02:41:04;9.00;99.90
7002;DHT22;3541;53.230;10.518;2024-03-22T02:43:31;9.10;99.90
7002;DHT22;3541;53.230;10.518;2024-03-22T02:45:57;9.20;99.90
7002;DHT22;3541;53.230;10.518;2024-03-22T02:48:23;9.10;99.90
7002;DHT22;3541;53.230;10.518;2024-03-22T02:50:49;9.10;99.90
7002;DHT22;3541;53.230;10.518;2024-03-22T02:53:15;9.10;99.90
7002;DHT22;3541;53.230;10.518;2024-03-22T02:55:41;9.00;99.90
7002;DHT22;3541;53.230;10.518;2024-03-22T02:58:09;9.10;99.90
7002;DHT22;3541;53.230;10.518;2024-03-22T03:00:35;9.10;99.90
7002;DHT22;3541;53.230;10.518;2024-03-22T03:03:02;9.20;99.90
7002;DHT22;3541;53.230;10.518;2024-03-22T03:05:28;9.20;99.90
7002;DHT22;3541;53.230;10.518;2024-03-22T03:07:55;9.10;99.90
7002;DHT22;3541;53.230;10.518;2024-03-22T03:10:21;9.20;99.90
7002;DHT22;3541;53.230;10.518;2024-03-22T03:12:47;9.10;99.90
7002;DHT22;3541;53.230;10.518;2024-03-22T03:15:15;9.10;99.90
7002;DHT22;3541;53.230;10.518;2024-03-22T03:17:42;9.20;99.90
7002;DHT22;3541;53.230;10.518;2024-03-22T03:20:08;9.30;99.90
7002;DHT22;3541;53.230;10.518;2024-03-22T03:22:38;9.20;99.90
7002;DHT22;3541;53.230;10.518;2024-03-22T03:25:04;9.30;99.90
7002;DHT22;3541;53.230;10.518;2024-03-22T03:27:31;9.30;99.90
7002;DHT22;3541;53.230;10.518;2024-03-22T03:29:56;9.30;99.90
7002;DHT22;3541;53.230;10.518;2024-03-22T03:32:24;9.30;99.90
7002;DHT22;3541;53.230;10.518;2024-03-22T03:34:50;9.30;99.90
7002;DHT22;3541;53.230;10.518;2024-03-22T03:37:17;9.30;99.90
7002;DHT22;3541;53.230;10.518;2024-03-22T03:39:42;9.30;99.90
7002;DHT22;3541;53.230;10.518;2024-03-22T03:42:10;9.30;99.90
7002;DHT22;3541;53.230;10.518;2024-03-22T03:44:35;9.30;99.90
7002;DHT22;3541;53.230;10.518;2024-03-22T03:47:02;9.30;99.90
7002;DHT22;3541;53.230;10.518;2024-03-22T03:49:29;9.30;99.90
7002;DHT22;3541;53.230;10.518;2024-03-22T03:51:56;9.30;99.90
7002;DHT22;3541;53.230;10.518;2024-03-22T03:54:22;9.30;99.90
7002;DHT22;3541;53.230;10.518;2024-03-22T03:56:48;9.40;99.90
7002;DHT22;3541;53.230;10.518;2024-03-22T03:59:14;9.30;99.90
7002;DHT22;3541;53.230;10.518;2024-03-22T04:01:40;9.20;99.90
7002;DHT22;3541;53.230;10.518;2024-03-22T04:04:06;9.20;99.90
7002;DHT22;3541;53.230;10.518;2024-03-22T04:06:34;9.30;99.90
7002;DHT22;3541;53.230;10.518;2024-03-22T04:08:59;9.30;99.90
7002;DHT22;3541;53.230;10.518;2024-03-22T04:11:28;9.30;99.90
7002;DHT22;3541;53.230;10.518;2024-03-22T04:13:53;9.30;99.90
7002;DHT22;3541;53.230;10.518;2024-03-22T04:16:20;9.30;99.90
7002;DHT22;3541;53.230;10.518;2024-03-22T04:18:46;9.30;99.90
7002;DHT22;3541;53.230;10.518;2024-03-22T04:21:12;9.30;99.90
7002;DHT22;3541;53.230;10.518;2024-03-22T04:23:39;9.30;99.90
7002;DHT22;3541;53.230;10.518;2024-03-22T04:26:05;9.40;99.90
7002;DHT22;3541;53.230;10.518;2024-03-22T04:28:31;9.40;99.90
7002;DHT22;3541;53.230;10.518;2024-03-22T04:30:59;9.40;99.90
7002;DHT22;3541;53.230;10.518;2024-03-22T04:33:25;9.40;99.90
7002;DHT22;3541;53.230;10.518;2024-03-22T04:35:53;9.40;99.90
7002;DHT22;3541;53.230;10.518;2024-03-22T04:38:18;9.40;99.90
7002;DHT22;3541;53.230;10.518;2024-03-22T04:40:46;9.40;99.90
7002;DHT22;3541;53.230;10.518;2024-03-22T04:43:12;9.40;99.90
7002;DHT22;3541;53.230;10.518;2024-03-22T04:45:38;9.40;99.90
7002;DHT22;3541;53.230;10.518;2024-03-22T04:48:05;9.30;99.90
7002;DHT22;3541;53.230;10.518;2024-03-22T04:50:31;9.30;99.90
7002;DHT22;3541;53.230;10.518;2024-03-22T04:52:58;9.40;99.90
7002;DHT22;3541;53.230;10.518;2024-03-22T04:55:23;9.40;99.90
7002;DHT22;3541;53.230;10.518;2024-03-22T04:57:51;9.40;99.90
7002;DHT22;3541;53.230;10.518;2024-03-22T05:00:18;9.40;99.90
7002;DHT22;3541;53.230;10.518;2024-03-22T05:02:44;9.40;99.90
7002;DHT22;3541;53.230;10.518;2024-03-22T05:05:10;9.40;99.90
7002;DHT22;3541;53.230;10.518;2024-03-22T05:07:37;9.40;99.90
7002;DHT22;3541;53.230;10.518;2024-03-22T05:10:03;9.40;99.90
7002;DHT22;3541;53.230;10.518;2024-03-22T05:12:30;9.40;99.90
7002;DHT22;3541;53.230;10.518;2024-03-22T05:14:57;9.40;99.90
7002;DHT22;3541;53.230;10.518;2024-03-22T05:17:24;9.40;99.90
7002;DHT22;3541;53.230;10.518;2024-03-22T05:19:50;9.40;99.90
7002;DHT22;3541;53.230;10.518;2024-03-22T05:22:17;9.40;99.90
7002;DHT22;3541;53.230;10.518;2024-03-22T05:24:45;9.40;99.90
7002;DHT22;3541;53.230;10.518;2024-03-22T05:27:12;9.40;99.90
7002;DHT22;3541;53.230;10.518;2024-03-22T05:29:38;9.40;99.90
7002;DHT22;3541;53.230;10.518;2024-03-22T05:32:06;9.40;99.90
7002;DHT22;3541;53.230;10.518;2024-03-22T05:34:32;9.40;99.90
7002;DHT22;3541;53.230;10.518;2024-03-22T05:36:58;9.40;99.90
7002;DHT22;3541;53.230;10.518;2024-03-22T05:39:24;9.50;99.90
7002;DHT22;3541;53.230;10.518;2024-03-22T05:41:51;9.50;99.90
7002;DHT22;3541;53.230;10.518;2024-03-22T05:44:16;9.40;99.90
7002;DHT22;3541;53.230;10.518;2024-03-22T05:46:43;9.40;99.90
7002;DHT22;3541;53.230;10.518;2024-03-22T05:49:11;9.40;99.90
7002;DHT22;3541;53.230;10.518;2024-03-22T05:51:37;9.40;99.90
7002;DHT22;3541;53.230;10.518;2024-03-22T05:54:04;9.50;99.90
7002;DHT22;3541;53.230;10.518;2024-03-22T05:56:29;9.50;99.90
7002;DHT22;3541;53.230;10.518;2024-03-22T05:58:56;9.50;99.90
7002;DHT22;3541;53.230;10.518;2024-03-22T06:01:22;9.40;99.90
7002;DHT22;3541;53.230;10.518;2024-03-22T06:03:48;9.50;99.90
7002;DHT22;3541;53.230;10.518;2024-03-22T06:06:15;9.50;99.90
7002;DHT22;3541;53.230;10.518;2024-03-22T06:08:42;9.50;99.90
7002;DHT22;3541;53.230;10.518;2024-03-22T06:11:09;9.50;99.90
7002;DHT22;3541;53.230;10.518;2024-03-22T06:13:36;9.60;99.90
7002;DHT22;3541;53.230;10.518;2024-03-22T06:16:02;9.60;99.90
7002;DHT22;3541;53.230;10.518;2024-03-22T06:18:29;9.60;99.90
7002;DHT22;3541;53.230;10.518;2024-03-22T06:20:54;9.60;99.90
7002;DHT22;3541;53.230;10.518;2024-03-22T06:23:22;9.60;99.90
7002;DHT22;3541;53.230;10.518;2024-03-22T06:25:51;9.60;99.90
7002;DHT22;3541;53.230;10.518;2024-03-22T06:28:18;9.60;99.90
7002;DHT22;3541;53.230;10.518;2024-03-22T06:30:44;9.70;99.90
7002;DHT22;3541;53.230;10.518;2024-03-22T06:33:10;9.70;99.90
7002;DHT22;3541;53.230;10.518;2024-03-22T06:35:37;9.70;99.90
7002;DHT22;3541;53.230;10.518;2024-03-22T06:38:03;9.70;99.90
7002;DHT22;3541;53.230;10.518;2024-03-22T06:40:31;9.80;99.90
7002;DHT22;3541;53.230;10.518;2024-03-22T06:42:57;9.80;99.90
7002;DHT22;3541;53.230;10.518;2024-03-22T06:45:24;9.80;99.90
7002;DHT22;3541;53.230;10.518;2024-03-22T06:47:49;9.80;99.90
7002;DHT22;3541;53.230;10.518;2024-03-22T06:50:16;9.80;99.90
7002;DHT22;3541;53.230;10.518;2024-03-22T06:52:43;9.80;99.90
7002;DHT22;3541;53.230;10.518;2024-03-22T06:55:09;9.80;99.90
7002;DHT22;3541;53.230;10.518;2024-03-22T06:57:37;9.80;99.90
7002;DHT22;3541;53.230;10.518;2024-03-22T07:00:04;9.90;99.90
7002;DHT22;3541;53.230;10.518;2024-03-22T07:02:30;9.90;99.90
7002;DHT22;3541;53.230;10.518;2024-03-22T07:04:56;9.80;99.90
7002;DHT22;3541;53.230;10.518;2024-03-22T07:07:22;9.90;99.90
7002;DHT22;3541;53.230;10.518;2024-03-22T07:09:48;9.90;99.90
7002;DHT22;3541;53.230;10.518;2024-03-22T07:12:14;10.00;99.90
7002;DHT22;3541;53.230;10.518;2024-03-22T07:14:42;10.00;99.90
7002;DHT22;3541;53.230;10.518;2024-03-22T07:17:08;10.00;99.90
7002;DHT22;3541;53.230;10.518;2024-03-22T07:19:35;10.10;99.90
7002;DHT22;3541;53.230;10.518;2024-03-22T07:22:00;10.10;99.90
7002;DHT22;3541;53.230;10.518;2024-03-22T07:24:27;10.10;99.90
7002;DHT22;3541;53.230;10.518;2024-03-22T07:26:52;10.20;99.90
7002;DHT22;3541;53.230;10.518;2024-03-22T07:29:19;10.20;99.90
7002;DHT22;3541;53.230;10.518;2024-03-22T07:31:46;10.20;99.90
7002;DHT22;3541;53.230;10.518;2024-03-22T07:34:13;10.20;99.90
7002;DHT22;3541;53.230;10.518;2024-03-22T07:36:39;10.20;99.90
7002;DHT22;3541;53.230;10.518;2024-03-22T07:39:05;10.30;99.90
7002;DHT22;3541;53.230;10.518;2024-03-22T07:41:31;10.30;99.90
7002;DHT22;3541;53.230;10.518;2024-03-22T07:43:58;10.30;99.90
7002;DHT22;3541;53.230;10.518;2024-03-22T07:46:25;10.40;99.90
7002;DHT22;3541;53.230;10.518;2024-03-22T07:48:53;10.30;99.90
7002;DHT22;3541;53.230;10.518;2024-03-22T07:51:19;10.40;99.90
7002;DHT22;3541;53.230;10.518;2024-03-22T07:53:46;10.40;99.90
7002;DHT22;3541;53.230;10.518;2024-03-22T07:56:11;10.40;99.90
7002;DHT22;3541;53.230;10.518;2024-03-22T07:58:38;10.50;99.90
7002;DHT22;3541;53.230;10.518;2024-03-22T08:01:04;10.40;99.90
7002;DHT22;3541;53.230;10.518;2024-03-22T08:03:30;10.40;99.90
7002;DHT22;3541;53.230;10.518;2024-03-22T08:05:57;10.40;99.90
7002;DHT22;3541;53.230;10.518;2024-03-22T08:08:24;10.50;99.90
7002;DHT22;3541;53.230;10.518;2024-03-22T08:10:50;10.50;99.90
7002;DHT22;3541;53.230;10.518;2024-03-22T08:13:17;10.50;99.90
7002;DHT22;3541;53.230;10.518;2024-03-22T08:15:43;10.50;99.90
7002;DHT22;3541;53.230;10.518;2024-03-22T08:18:11;10.50;99.90
7002;DHT22;3541;53.230;10.518;2024-03-22T08:20:36;10.50;99.90
7002;DHT22;3541;53.230;10.518;2024-03-22T08:23:05;10.50;99.90
7002;DHT22;3541;53.230;10.518;2024-03-22T08:25:31;10.50;99.90
7002;DHT22;3541;53.230;10.518;2024-03-22T08:27:59;10.50;99.90
7002;DHT22;3541;53.230;10.518;2024-03-22T08:30:25;10.50;99.90
7002;DHT22;3541;53.230;10.518;2024-03-22T08:32:52;10.50;99.90
7002;DHT22;3541;53.230;10.518;2024-03-22T08:35:17;10.50;99.90
7002;DHT22;3541;53.230;10.518;2024-03-22T08:37:44;10.50;99.90
7002;DHT22;3541;53.230;10.518;2024-03-22T08:40:12;10.50;99.90
7002;DHT22;3541;53.230;10.518;2024-03-22T08:42:39;10.50;99.90
7002;DHT22;3541;53.230;10.518;2024-03-22T08:45:06;10.50;99.90
7002;DHT22;3541;53.230;10.518;2024-03-22T08:47:33;10.50;99.90
7002;DHT22;3541;53.230;10.518;2024-03-22T08:49:59;10.50;99.90
7002;DHT22;3541;53.230;10.518;2024-03-22T08:52:25;10.40;99.90
7002;DHT22;3541;53.230;10.518;2024-03-22T08:54:51;10.50;99.90
7002;DHT22;3541;53.230;10.518;2024-03-22T08:57:20;10.50;99.90
7002;DHT22;3541;53.230;10.518;2024-03-22T08:59:45;10.50;99.90
7002;DHT22;3541;53.230;10.518;2024-03-22T09:02:12;10.50;99.90
7002;DHT22;3541;53.230;10.518;2024-03-22T09:04:38;10.50;99.90
7002;DHT22;3541;53.230;10.518;2024-03-22T09:07:04;10.50;99.90
7002;DHT22;3541;53.230;10.518;2024-03-22T09:09:30;10.60;99.90
7002;DHT22;3541;53.230;10.518;2024-03-22T09:11:57;10.60;99.90
7002;DHT22;3541;53.230;10.518;2024-03-22T09:14:24;10.60;99.90
7002;DHT22;3541;53.230;10.518;2024-03-22T09:16:51;10.60;99.90
7002;DHT22;3541;53.230;10.518;2024-03-22T09:19:16;10.60;99.90
7002;DHT22;3541;53.230;10.518;2024-03-22T09:21:43;10.60;99.90
7002;DHT22;3541;53.230;10.518;2024-03-22T09:24:09;10.50;99.90
7002;DHT22;3541;53.230;10.518;2024-03-22T09:26:35;10.50;99.90
7002;DHT22;3541;53.230;10.518;2024-03-22T09:29:02;10.50;99.90
7002;DHT22;3541;53.230;10.518;2024-03-22T09:31:30;10.50;99.90
7002;DHT22;3541;53.230;10.518;2024-03-22T09:33:58;10.60;99.90
7002;DHT22;3541;53.230;10.518;2024-03-22T09:36:23;10.60;99.90
7002;DHT22;3541;53.230;10.518;2024-03-22T09:38:50;10.50;99.90
7002;DHT22;3541;53.230;10.518;2024-03-22T09:41:17;10.50;99.90
7002;DHT22;3541;53.230;10.518;2024-03-22T09:43:49;10.50;99.90
7002;DHT22;3541;53.230;10.518;2024-03-22T09:46:18;10.50;99.90
7002;DHT22;3541;53.230;10.518;2024-03-22T09:48:47;10.50;99.90
7002;DHT22;3541;53.230;10.518;2024-03-22T09:51:13;10.50;99.90
7002;DHT22;3541;53.230;10.518;2024-03-22T09:53:42;10.60;99.90
7002;DHT22;3541;53.230;10.518;2024-03-22T09:56:09;10.50;99.90
7002;DHT22;3541;53.230;10.518;2024-03-22T09:58:36;10.60;99.90
7002;DHT22;3541;53.230;10.518;2024-03-22T10:01:03;10.60;99.90
7002;DHT22;3541;53.230;10.518;2024-03-22T10:03:30;10.60;99.90
7002;DHT22;3541;53.230;10.518;2024-03-22T10:05:57;10.60;99.90
7002;DHT22;3541;53.230;10.518;2024-03-22T10:08:24;10.60;99.90
7002;DHT22;3541;53.230;10.518;2024-03-22T10:10:50;10.60;99.90
7002;DHT22;3541;53.230;10.518;2024-03-22T10:13:17;10.60;99.90
7002;DHT22;3541;53.230;10.518;2024-03-22T10:15:42;10.60;99.90
7002;DHT22;3541;53.230;10.518;2024-03-22T10:18:10;10.70;99.90
7002;DHT22;3541;53.230;10.518;2024-03-22T10:20:35;10.60;99.90
7002;DHT22;3541;53.230;10.518;2024-03-22T10:23:03;10.60;99.90
7002;DHT22;3541;53.230;10.518;2024-03-22T10:25:29;10.60;99.90
7002;DHT22;3541;53.230;10.518;2024-03-22T10:27:56;10.60;99.90
7002;DHT22;3541;53.230;10.518;2024-03-22T10:30:23;10.70;99.90
7002;DHT22;3541;53.230;10.518;2024-03-22T10:32:50;10.70;99.90
7002;DHT22;3541;53.230;10.518;2024-03-22T10:35:16;10.70;99.90
7002;DHT22;3541;53.230;10.518;2024-03-22T10:37:43;10.70;99.90
7002;DHT22;3541;53.230;10.518;2024-03-22T10:40:11;10.70;99.90
7002;DHT22;3541;53.230;10.518;2024-03-22T10:42:40;10.70;99.90
7002;DHT22;3541;53.230;10.518;2024-03-22T10:45:07;10.70;99.90
7002;DHT22;3541;53.230;10.518;2024-03-22T10:47:35;10.70;99.90
7002;DHT22;3541;53.230;10.518;2024-03-22T10:50:04;10.70;99.90
7002;DHT22;3541;53.230;10.518;2024-03-22T10:52:35;10.70;99.90
7002;DHT22;3541;53.230;10.518;2024-03-22T10:55:05;10.70;99.90
7002;DHT22;3541;53.230;10.518;2024-03-22T10:57:35;10.70;99.90
7002;DHT22;3541;53.230;10.518;2024-03-22T11:00:04;10.70;99.90
7002;DHT22;3541;53.230;10.518;2024-03-22T11:02:35;10.80;99.90
7002;DHT22;3541;53.230;10.518;2024-03-22T11:05:01;10.70;99.90
7002;DHT22;3541;53.230;10.518;2024-03-22T11:07:29;10.80;99.90
7002;DHT22;3541;53.230;10.518;2024-03-22T11:09:56;10.80;99.90
7002;DHT22;3541;53.230;10.518;2024-03-22T11:12:27;10.80;99.90
7002;DHT22;3541;53.230;10.518;2024-03-22T11:14:55;10.80;99.90
7002;DHT22;3541;53.230;10.518;2024-03-22T11:17:22;10.80;99.90
7002;DHT22;3541;53.230;10.518;2024-03-22T11:19:50;10.80;99.90
7002;DHT22;3541;53.230;10.518;2024-03-22T11:22:17;10.80;99.90
7002;DHT22;3541;53.230;10.518;2024-03-22T11:24:43;10.80;99.90
7002;DHT22;3541;53.230;10.518;2024-03-22T11:27:10;10.80;99.90
7002;DHT22;3541;53.230;10.518;2024-03-22T11:29:36;10.80;99.90
7002;DHT22;3541;53.230;10.518;2024-03-22T11:32:06;10.80;99.90
7002;DHT22;3541;53.230;10.518;2024-03-22T11:34:34;10.80;99.90
7002;DHT22;3541;53.230;10.518;2024-03-22T11:37:00;10.80;99.90
7002;DHT22;3541;53.230;10.518;2024-03-22T11:39:26;10.70;99.90
7002;DHT22;3541;53.230;10.518;2024-03-22T11:41:53;10.80;99.90
7002;DHT22;3541;53.230;10.518;2024-03-22T11:44:19;10.80;99.90
7002;DHT22;3541;53.230;10.518;2024-03-22T11:46:46;10.70;99.90
7002;DHT22;3541;53.230;10.518;2024-03-22T11:49:13;10.70;99.90
7002;DHT22;3541;53.230;10.518;2024-03-22T11:51:40;10.70;99.90
7002;DHT22;3541;53.230;10.518;2024-03-22T11:54:06;10.80;99.90
7002;DHT22;3541;53.230;10.518;2024-03-22T11:56:35;10.80;99.90
7002;DHT22;3541;53.230;10.518;2024-03-22T11:59:01;10.80;99.90
7002;DHT22;3541;53.230;10.518;2024-03-22T12:01:28;10.80;99.90
7002;DHT22;3541;53.230;10.518;2024-03-22T12:03:54;10.80;99.90
7002;DHT22;3541;53.230;10.518;2024-03-22T12:06:23;10.80;99.90
7002;DHT22;3541;53.230;10.518;2024-03-22T12:08:48;10.80;99.90
7002;DHT22;3541;53.230;10.518;2024-03-22T12:11:15;10.80;99.90
7002;DHT22;3541;53.230;10.518;2024-03-22T12:13:40;10.80;99.90
7002;DHT22;3541;53.230;10.518;2024-03-22T12:16:07;10.80;99.90
7002;DHT22;3541;53.230;10.518;2024-03-22T12:18:33;10.80;99.90
7002;DHT22;3541;53.230;10.518;2024-03-22T12:21:00;10.70;99.90
7002;DHT22;3541;53.230;10.518;2024-03-22T12:23:27;10.70;99.90
7002;DHT22;3541;53.230;10.518;2024-03-22T12:25:54;10.70;99.90
7002;DHT22;3541;53.230;10.518;2024-03-22T12:28:21;10.70;99.90
7002;DHT22;3541;53.230;10.518;2024-03-22T12:30:48;10.70;99.90
7002;DHT22;3541;53.230;10.518;2024-03-22T12:33:14;10.70;99.90
7002;DHT22;3541;53.230;10.518;2024-03-22T12:35:41;10.70;99.90
7002;DHT22;3541;53.230;10.518;2024-03-22T12:38:07;10.80;99.90
7002;DHT22;3541;53.230;10.518;2024-03-22T12:40:36;10.80;99.90
7002;DHT22;3541;53.230;10.518;2024-03-22T12:43:02;10.80;99.90
7002;DHT22;3541;53.230;10.518;2024-03-22T12:45:28;10.80;99.90
7002;DHT22;3541;53.230;10.518;2024-03-22T12:47:54;10.90;99.90
7002;DHT22;3541;53.230;10.518;2024-03-22T12:50:21;10.90;99.90
7002;DHT22;3541;53.230;10.518;2024-03-22T12:52:46;10.90;99.90
7002;DHT22;3541;53.230;10.518;2024-03-22T12:55:13;10.90;99.90
7002;DHT22;3541;53.230;10.518;2024-03-22T12:57:40;10.90;99.90
7002;DHT22;3541;53.230;10.518;2024-03-22T13:00:09;10.80;99.90
7002;DHT22;3541;53.230;10.518;2024-03-22T13:02:39;10.80;99.90
7002;DHT22;3541;53.230;10.518;2024-03-22T13:05:06;10.80;99.90
7002;DHT22;3541;53.230;10.518;2024-03-22T13:07:32;10.90;99.90
7002;DHT22;3541;53.230;10.518;2024-03-22T13:09:58;10.90;99.90
7002;DHT22;3541;53.230;10.518;2024-03-22T13:12:25;10.90;99.90
7002;DHT22;3541;53.230;10.518;2024-03-22T13:14:53;10.90;99.90
7002;DHT22;3541;53.230;10.518;2024-03-22T13:17:19;10.90;99.90
7002;DHT22;3541;53.230;10.518;2024-03-22T13:19:45;10.90;99.90
7002;DHT22;3541;53.230;10.518;2024-03-22T13:22:11;10.90;99.90
7002;DHT22;3541;53.230;10.518;2024-03-22T13:24:40;10.90;99.90
7002;DHT22;3541;53.230;10.518;2024-03-22T13:27:05;10.90;99.90
7002;DHT22;3541;53.230;10.518;2024-03-22T13:29:33;10.90;99.90
7002;DHT22;3541;53.230;10.518;2024-03-22T13:32:01;10.90;99.90
7002;DHT22;3541;53.230;10.518;2024-03-22T13:34:26;10.80;99.90
7002;DHT22;3541;53.230;10.518;2024-03-22T13:36:53;10.80;99.90
7002;DHT22;3541;53.230;10.518;2024-03-22T13:39:19;10.80;99.90
7002;DHT22;3541;53.230;10.518;2024-03-22T13:41:46;10.80;99.90
7002;DHT22;3541;53.230;10.518;2024-03-22T13:44:12;10.80;99.90
7002;DHT22;3541;53.230;10.518;2024-03-22T13:46:39;10.80;99.90
7002;DHT22;3541;53.230;10.518;2024-03-22T13:49:14;10.80;99.90
7002;DHT22;3541;53.230;10.518;2024-03-22T13:51:42;10.80;99.90
7002;DHT22;3541;53.230;10.518;2024-03-22T13:54:08;10.80;99.90
7002;DHT22;3541;53.230;10.518;2024-03-22T13:56:34;10.90;99.90
7002;DHT22;3541;53.230;10.518;2024-03-22T13:59:01;10.80;99.90
7002;DHT22;3541;53.230;10.518;2024-03-22T14:01:27;10.90;99.90
7002;DHT22;3541;53.230;10.518;2024-03-22T14:03:53;10.80;99.90
7002;DHT22;3541;53.230;10.518;2024-03-22T14:06:22;10.80;99.90
7002;DHT22;3541;53.230;10.518;2024-03-22T14:08:48;10.80;99.90
7002;DHT22;3541;53.230;10.518;2024-03-22T14:11:14;10.90;99.90
7002;DHT22;3541;53.230;10.518;2024-03-22T14:13:40;10.90;99.90
7002;DHT22;3541;53.230;10.518;2024-03-22T14:16:06;10.90;99.90
7002;DHT22;3541;53.230;10.518;2024-03-22T14:18:33;10.90;99.90
7002;DHT22;3541;53.230;10.518;2024-03-22T14:21:00;10.90;99.90
7002;DHT22;3541;53.230;10.518;2024-03-22T14:23:27;10.90;99.90
7002;DHT22;3541;53.230;10.518;2024-03-22T14:25:54;10.90;99.90
7002;DHT22;3541;53.230;10.518;2024-03-22T14:28:20;10.90;99.90
7002;DHT22;3541;53.230;10.518;2024-03-22T14:30:47;10.90;99.90
7002;DHT22;3541;53.230;10.518;2024-03-22T14:33:12;11.00;99.90
7002;DHT22;3541;53.230;10.518;2024-03-22T14:35:39;11.00;99.90
7002;DHT22;3541;53.230;10.518;2024-03-22T14:38:04;11.00;99.90
7002;DHT22;3541;53.230;10.518;2024-03-22T14:40:32;11.00;99.90
7002;DHT22;3541;53.230;10.518;2024-03-22T14:43:02;10.90;99.90
7002;DHT22;3541;53.230;10.518;2024-03-22T14:45:29;10.80;99.90
7002;DHT22;3541;53.230;10.518;2024-03-22T14:47:54;10.80;99.90
7002;DHT22;3541;53.230;10.518;2024-03-22T14:50:21;10.80;99.90
7002;DHT22;3541;53.230;10.518;2024-03-22T14:52:49;10.80;99.90
7002;DHT22;3541;53.230;10.518;2024-03-22T14:55:15;10.90;99.90
7002;DHT22;3541;53.230;10.518;2024-03-22T14:57:42;11.00;99.90
7002;DHT22;3541;53.230;10.518;2024-03-22T15:00:10;11.00;99.90
7002;DHT22;3541;53.230;10.518;2024-03-22T15:02:38;10.90;99.90
7002;DHT22;3541;53.230;10.518;2024-03-22T15:05:05;10.90;99.90
7002;DHT22;3541;53.230;10.518;2024-03-22T15:07:31;11.00;99.90
7002;DHT22;3541;53.230;10.518;2024-03-22T15:09:57;11.00;99.90
7002;DHT22;3541;53.230;10.518;2024-03-22T15:12:23;11.00;99.90
7002;DHT22;3541;53.230;10.518;2024-03-22T15:14:52;11.10;99.90
7002;DHT22;3541;53.230;10.518;2024-03-22T15:17:18;11.10;99.90
7002;DHT22;3541;53.230;10.518;2024-03-22T15:19:48;11.10;99.90
7002;DHT22;3541;53.230;10.518;2024-03-22T15:22:14;11.00;99.90
7002;DHT22;3541;53.230;10.518;2024-03-22T15:24:43;11.00;99.90
7002;DHT22;3541;53.230;10.518;2024-03-22T15:27:09;11.00;99.90
7002;DHT22;3541;53.230;10.518;2024-03-22T15:29:36;11.00;99.90
7002;DHT22;3541;53.230;10.518;2024-03-22T15:32:03;11.00;99.90
7002;DHT22;3541;53.230;10.518;2024-03-22T15:34:30;11.00;99.90
7002;DHT22;3541;53.230;10.518;2024-03-22T15:36:56;11.10;99.90
7002;DHT22;3541;53.230;10.518;2024-03-22T15:39:22;11.00;99.90
7002;DHT22;3541;53.230;10.518;2024-03-22T15:41:50;11.00;99.90
7002;DHT22;3541;53.230;10.518;2024-03-22T15:44:17;11.00;99.90
7002;DHT22;3541;53.230;10.518;2024-03-22T15:46:43;10.90;99.90